Time;durP1;ratioP1;P1;durP2;ratioP2;P2;SDS_P1;SDS_P2;PMS_P1;PMS_P2;Temp;Humidity;BMP_temperature;BMP_pressure;BME280_temperature;BME280_humidity;BME280_pressure;Samples;Min_cycle;Max_cycle;Signal;HPM_P1;HPM_P2
2022/12/30 00:01:44;;;;;;;;;;;;;;;28.13;24.23;101596.84;5097457;28;1894;-18
2022/12/30 00:04:09;;;;;;;;;;;;;;;27.65;24.57;101602.84;5097213;28;1022;-18
2022/12/30 00:06:34;;;;;;;;;;;;;;;27.41;24.91;101599.09;5084295;28;1214;-18
2022/12/30 00:09:00;;;;;;;;;;;;;;;28.20;23.69;101597.84;5085674;28;1487;-18
2022/12/30 00:11:29;;;;;;;;;;;;;;;27.90;23.97;101601.06;5095008;28;1226;-18
2022/12/30 00:33:22;;;;;;;;;;;;;;;28.57;23.93;101596.50;5086665;28;1002;-18
2022/12/30 00:35:47;;;;;;;;;;;;;;;28.06;24.51;101594.81;5076151;28;1032;-18
2022/12/30 00:38:13;;;;;;;;;;;;;;;28.04;24.66;101596.84;5075657;28;1036;-18
2022/12/30 00:43:07;;;;;;;;;;;;;;;27.82;25.09;101603.75;5093746;28;1166;-18
2022/12/30 00:43:23;;;;;;;;;;;;;;;27.67;24.99;101598.97;5083329;28;1050;-18
2022/12/30 00:45:49;;;;;;;;;;;;;;;28.31;24.54;101604.78;5096028;28;1050;-18
2022/12/30 00:56:26;;;;;;;;;;;;;;;27.69;25.50;101605.09;5082756;28;1129;-18
2022/12/30 00:58:51;;;;;;;;;;;;;;;27.84;25.24;101599.03;5089431;28;1205;-18
2022/12/30 01:01:17;;;;;;;;;;;;;;;27.73;25.52;101601.03;5075887;28;1890;-18
2022/12/30 01:03:42;;;;;;;;;;;;;;;28.50;23.93;101606.31;5096212;28;1163;-18
2022/12/30 01:06:08;;;;;;;;;;;;;;;28.98;23.35;101604.72;5096179;28;1063;-18
2022/12/30 01:08:33;;;;;;;;;;;;;;;28.78;23.83;101614.03;5089931;28;1139;-18
2022/12/30 01:10:58;;;;;;;;;;;;;;;27.92;24.96;101607.16;5087865;28;1070;-18
2022/12/30 01:13:24;;;;;;;;;;;;;;;27.72;25.27;101606.63;5079621;28;1134;-18
2022/12/30 01:15:49;;;;;;;;;;;;;;;27.91;25.36;101616.25;5076087;28;1058;-18
2022/12/30 01:18:14;;;;;;;;;;;;;;;27.67;25.39;101612.50;5076564;28;1057;-18
2022/12/30 01:20:39;;;;;;;;;;;;;;;28.64;23.76;101599.34;5089067;28;1067;-18
2022/12/30 01:23:05;;;;;;;;;;;;;;;29.06;23.11;101610.91;5082588;28;1906;-18
2022/12/30 01:25:30;;;;;;;;;;;;;;;28.33;24.52;101602.78;5096208;28;1142;-18
2022/12/30 01:27:55;;;;;;;;;;;;;;;27.84;25.34;101593.63;5082260;28;1070;-18
2022/12/30 01:30:21;;;;;;;;;;;;;;;27.79;25.43;101588.72;5096225;28;1150;-18
2022/12/30 01:32:46;;;;;;;;;;;;;;;28.16;24.93;101585.69;5082379;28;1121;-18
2022/12/30 01:35:11;;;;;;;;;;;;;;;27.92;25.02;101588.22;5096234;28;1093;-18
2022/12/30 01:37:37;;;;;;;;;;;;;;;28.70;23.72;101584.28;5096471;28;1050;-18
2022/12/30 01:40:02;;;;;;;;;;;;;;;29.07;23.36;101581.97;5100212;28;1121;-18
2022/12/30 01:42:28;;;;;;;;;;;;;;;28.65;24.15;101581.22;5080662;28;1956;-18
2022/12/30 01:44:56;;;;;;;;;;;;;;;28.09;25.06;101583.66;5092997;28;1046;-18
2022/12/30 01:47:24;;;;;;;;;;;;;;;27.92;25.25;101577.41;5096920;28;1181;-18
2022/12/30 01:49:51;;;;;;;;;;;;;;;27.81;25.16;101575.88;5095963;28;1202;-18
2022/12/30 01:52:16;;;;;;;;;;;;;;;27.54;25.55;101574.28;5079565;28;1061;-18
2022/12/30 01:54:42;;;;;;;;;;;;;;;28.81;23.25;101581.19;5096401;28;1174;-18
2022/12/30 01:57:07;;;;;;;;;;;;;;;28.88;22.97;101584.03;5090098;28;1201;-18
2022/12/30 01:59:32;;;;;;;;;;;;;;;28.28;24.30;101575.38;5092108;28;1195;-18
2022/12/30 02:01:58;;;;;;;;;;;;;;;28.03;24.65;101576.22;5077755;28;1898;-18
2022/12/30 02:04:24;;;;;;;;;;;;;;;28.03;24.55;101561.88;5082575;28;1031;-18
2022/12/30 02:06:58;;;;;;;;;;;;;;;28.03;24.41;101567.28;5093517;28;1126;-18
2022/12/30 02:09:24;;;;;;;;;;;;;;;27.84;24.74;101569.28;5100047;28;1128;-18
2022/12/30 02:11:49;;;;;;;;;;;;;;;28.21;24.43;101562.50;5088496;28;1197;-18
2022/12/30 02:14:15;;;;;;;;;;;;;;;28.77;23.17;101562.75;5091415;28;1392;-18
2022/12/30 02:16:43;;;;;;;;;;;;;;;28.75;23.36;101557.53;5086661;28;1218;-18
2022/12/30 02:19:17;;;;;;;;;;;;;;;28.68;23.23;101553.81;5089022;28;1467;-18
2022/12/30 02:22:15;;;;;;;;;;;;;;;28.23;24.12;101551.50;5098287;28;1910;-18
2022/12/30 02:25:09;;;;;;;;;;;;;;;28.34;23.81;101545.78;5065248;28;1252;-18
2022/12/30 02:27:53;;;;;;;;;;;;;;;27.95;24.55;101549.19;5044956;28;1295;-18
2022/12/30 02:30:21;;;;;;;;;;;;;;;27.91;24.64;101543.25;5079432;28;944;-18
2022/12/30 02:32:51;;;;;;;;;;;;;;;28.63;23.44;101545.41;5084696;28;1095;-18
2022/12/30 02:35:28;;;;;;;;;;;;;;;28.66;23.55;101545.88;5089546;28;1046;-18
2022/12/30 02:38:01;;;;;;;;;;;;;;;28.27;24.13;101550.19;5079022;28;992;-18
2022/12/30 02:46:11;;;;;;;;;;;;;;;27.91;24.78;101547.84;5077809;28;965;-18
2022/12/30 02:48:37;;;;;;;;;;;;;;;28.24;24.20;101542.41;5078981;28;1086;-18
2022/12/30 02:53:46;;;;;;;;;;;;;;;28.65;23.64;101541.47;5087119;28;1162;-18
2022/12/30 02:56:11;;;;;;;;;;;;;;;28.53;23.49;101540.19;5098591;28;1062;-18
2022/12/30 02:58:40;;;;;;;;;;;;;;;28.66;23.73;101545.88;5098053;28;1047;-18
2022/12/30 03:04:23;;;;;;;;;;;;;;;27.63;24.82;101539.00;5096888;28;1090;-18
2022/12/30 03:07:24;;;;;;;;;;;;;;;27.67;25.09;101536.81;5079482;28;1153;-18
2022/12/30 03:12:46;;;;;;;;;;;;;;;28.33;24.18;101545.94;5076663;28;1054;-18
2022/12/30 03:15:15;;;;;;;;;;;;;;;29.22;22.57;101546.84;5088864;28;1175;-18
2022/12/30 03:17:41;;;;;;;;;;;;;;;28.88;22.99;101545.31;5078369;28;1035;-18
2022/12/30 03:20:07;;;;;;;;;;;;;;;28.47;23.96;101542.56;5096982;28;1016;-18
2022/12/30 03:28:20;;;;;;;;;;;;;;;28.11;24.16;101559.16;5025349;28;1235;-18
2022/12/30 03:30:50;;;;;;;;;;;;;;;27.60;24.80;101552.84;5052118;28;888;-18
2022/12/30 03:33:15;;;;;;;;;;;;;;;27.73;24.56;101560.50;5055658;28;1237;-18
2022/12/30 03:35:43;;;;;;;;;;;;;;;28.14;24.06;101556.13;5089555;28;1128;-18
2022/12/30 03:38:09;;;;;;;;;;;;;;;28.56;23.37;101561.47;5084549;28;966;-18
2022/12/30 03:40:35;;;;;;;;;;;;;;;28.47;23.73;101555.25;5090213;28;1141;-18
2022/12/30 03:43:00;;;;;;;;;;;;;;;28.58;23.74;101559.44;5076442;28;1977;-18
2022/12/30 03:45:25;;;;;;;;;;;;;;;28.11;24.15;101560.00;5079641;28;1086;-18
2022/12/30 03:47:51;;;;;;;;;;;;;;;28.04;24.47;101560.84;5097954;28;1350;-18
2022/12/30 03:50:16;;;;;;;;;;;;;;;27.42;25.35;101560.25;5094340;28;1069;-18
2022/12/30 03:52:41;;;;;;;;;;;;;;;27.59;25.17;101548.44;5087777;28;1146;-18
2022/12/30 03:55:06;;;;;;;;;;;;;;;28.29;23.64;101553.56;5083297;28;915;-18
2022/12/30 03:57:32;;;;;;;;;;;;;;;28.50;23.72;101562.16;5097902;28;982;-18
2022/12/30 03:59:57;;;;;;;;;;;;;;;27.97;24.25;101557.97;5084203;28;1208;-18
2022/12/30 04:02:22;;;;;;;;;;;;;;;28.10;24.11;101569.13;5086453;28;1961;-18
2022/12/30 04:04:48;;;;;;;;;;;;;;;27.78;24.66;101567.28;5090723;28;1109;-18
2022/12/30 04:07:13;;;;;;;;;;;;;;;27.70;24.89;101574.34;5076934;28;1033;-18
2022/12/30 04:09:38;;;;;;;;;;;;;;;27.19;25.65;101567.13;5077386;28;1023;-18
2022/12/30 04:12:03;;;;;;;;;;;;;;;28.02;24.29;101574.53;5086236;28;1442;-18
2022/12/30 04:14:29;;;;;;;;;;;;;;;28.75;23.04;101579.19;5095084;28;1082;-18
2022/12/30 04:16:54;;;;;;;;;;;;;;;28.30;23.42;101576.88;5096593;28;1093;-18
2022/12/30 04:19:19;;;;;;;;;;;;;;;28.23;24.14;101583.97;5097095;28;1010;-18
2022/12/30 04:21:45;;;;;;;;;;;;;;;27.71;24.65;101576.03;5096787;28;1977;-17
2022/12/30 04:24:10;;;;;;;;;;;;;;;27.85;24.22;101579.09;5096985;28;1070;-17
2022/12/30 04:26:35;;;;;;;;;;;;;;;27.55;24.95;101579.53;5088459;28;1117;-17
2022/12/30 04:29:01;;;;;;;;;;;;;;;27.09;25.66;101582.59;5078185;28;1043;-18
2022/12/30 04:31:26;;;;;;;;;;;;;;;27.00;25.45;101574.44;5096297;28;1042;-18
2022/12/30 04:33:51;;;;;;;;;;;;;;;26.93;25.34;101586.88;5088119;28;1483;-18
2022/12/30 04:36:17;;;;;;;;;;;;;;;27.13;24.88;101586.66;5096852;28;1045;-18
2022/12/30 04:38:43;;;;;;;;;;;;;;;27.06;25.36;101586.47;5086457;28;1241;-18
2022/12/30 04:41:08;;;;;;;;;;;;;;;27.48;24.14;101586.59;5088694;28;1894;-18
2022/12/30 04:43:33;;;;;;;;;;;;;;;27.43;24.58;101589.78;5094735;28;1098;-18
2022/12/30 04:45:59;;;;;;;;;;;;;;;27.22;25.00;101590.25;5095928;28;1010;-18
2022/12/30 04:48:24;;;;;;;;;;;;;;;27.54;24.90;101593.22;5095486;28;987;-17
2022/12/30 04:50:49;;;;;;;;;;;;;;;28.11;23.81;101587.03;5095533;28;1098;-18
2022/12/30 04:53:14;;;;;;;;;;;;;;;27.87;23.70;101588.75;5095630;28;1067;-17
2022/12/30 04:55:40;;;;;;;;;;;;;;;27.66;24.56;101596.44;5095780;28;1138;-18
2022/12/30 04:58:05;;;;;;;;;;;;;;;28.87;23.05;101601.31;5096330;28;999;-17
2022/12/30 05:00:31;;;;;;;;;;;;;;;27.55;24.48;101593.03;5096393;28;1089;-17
2022/12/30 05:02:56;;;;;;;;;;;;;;;26.92;25.58;101592.44;5096737;28;1906;-17
2022/12/30 05:05:21;;;;;;;;;;;;;;;28.14;24.06;101591.28;5096123;28;1034;-17
2022/12/30 05:07:46;;;;;;;;;;;;;;;29.27;22.59;101597.78;5096698;28;1098;-18
2022/12/30 05:10:12;;;;;;;;;;;;;;;29.65;22.12;101597.94;5096170;28;1074;-17
2022/12/30 05:12:37;;;;;;;;;;;;;;;29.70;21.89;101591.97;5096310;28;1114;-17
2022/12/30 05:15:03;;;;;;;;;;;;;;;29.51;22.09;101598.69;5096305;28;1129;-17
2022/12/30 05:17:28;;;;;;;;;;;;;;;28.62;23.36;101593.25;5096221;28;1120;-17
2022/12/30 05:19:54;;;;;;;;;;;;;;;27.66;24.23;101596.44;5095760;28;1069;-17
2022/12/30 05:22:19;;;;;;;;;;;;;;;28.03;23.33;101592.44;5096317;28;1906;-18
2022/12/30 05:27:29;;;;;;;;;;;;;;;28.79;23.24;101595.94;5096232;28;1075;-17
2022/12/30 05:29:54;;;;;;;;;;;;;;;29.33;22.53;101597.06;5096231;28;1201;-17
2022/12/30 05:32:20;;;;;;;;;;;;;;;27.16;25.54;101590.91;5096476;28;1100;-18
2022/12/30 05:34:45;;;;;;;;;;;;;;;27.06;25.86;101591.03;5096345;28;1453;-18
2022/12/30 05:37:10;;;;;;;;;;;;;;;26.85;25.77;101593.09;5096686;28;1142;-18
2022/12/30 05:39:35;;;;;;;;;;;;;;;26.51;26.46;101597.44;5096347;28;1046;-17
2022/12/30 05:42:01;;;;;;;;;;;;;;;26.49;26.72;101601.31;5095551;28;1913;-17
2022/12/30 05:44:26;;;;;;;;;;;;;;;27.58;25.48;101598.09;5096768;28;1131;-17
2022/12/30 05:46:51;;;;;;;;;;;;;;;27.88;24.96;101603.09;5095910;28;1133;-17
2022/12/30 05:49:17;;;;;;;;;;;;;;;27.65;24.98;101601.00;5096173;28;1018;-17
2022/12/30 05:51:42;;;;;;;;;;;;;;;27.56;25.34;101599.31;5095905;28;1144;-17
2022/12/30 05:54:08;;;;;;;;;;;;;;;27.95;24.48;101598.72;5095623;28;1062;-17
2022/12/30 05:56:33;;;;;;;;;;;;;;;28.03;24.51;101603.25;5096234;28;1385;-17
2022/12/30 05:58:58;;;;;;;;;;;;;;;27.91;24.76;101604.63;5096127;28;1057;-17
2022/12/30 06:01:24;;;;;;;;;;;;;;;28.06;24.89;101607.50;5095973;28;1968;-17
2022/12/30 06:03:49;;;;;;;;;;;;;;;27.93;24.51;101608.84;5096361;28;1062;-17
2022/12/30 06:06:14;;;;;;;;;;;;;;;27.36;25.76;101602.28;5095691;28;1050;-17
2022/12/30 06:08:39;;;;;;;;;;;;;;;27.68;25.36;101608.81;5096074;28;1065;-17
2022/12/30 06:11:05;;;;;;;;;;;;;;;28.15;24.49;101605.63;5095485;28;1026;-17
2022/12/30 06:13:30;;;;;;;;;;;;;;;27.73;24.84;101608.28;5091799;28;1182;-17
2022/12/30 06:15:55;;;;;;;;;;;;;;;28.04;24.86;101604.13;5089951;28;1082;-17
2022/12/30 06:18:21;;;;;;;;;;;;;;;27.44;25.67;101602.31;5095437;28;1224;-17
2022/12/30 06:20:46;;;;;;;;;;;;;;;26.76;26.44;101610.22;5095224;28;1219;-17
2022/12/30 06:23:11;;;;;;;;;;;;;;;26.75;26.53;101611.25;5095868;28;1905;-17
2022/12/30 06:25:37;;;;;;;;;;;;;;;26.60;27.05;101602.88;5098097;28;1184;-17
2022/12/30 06:28:02;;;;;;;;;;;;;;;26.68;26.56;101612.88;5099968;28;1050;-17
2022/12/30 06:30:27;;;;;;;;;;;;;;;26.52;27.19;101618.03;5095037;28;1118;-17
2022/12/30 06:32:53;;;;;;;;;;;;;;;27.06;26.38;101618.03;5099517;28;1110;-17
2022/12/30 06:35:19;;;;;;;;;;;;;;;27.15;25.77;101614.34;5099554;28;1050;-17
2022/12/30 06:37:44;;;;;;;;;;;;;;;27.07;26.01;101612.47;5099803;28;1026;-17
2022/12/30 06:40:10;;;;;;;;;;;;;;;27.55;25.52;101616.50;5099351;28;1106;-17
2022/12/30 06:42:35;;;;;;;;;;;;;;;28.75;24.05;101608.97;5099208;28;1886;-17
2022/12/30 06:45:00;;;;;;;;;;;;;;;28.29;24.36;101618.50;5099538;28;1034;-17
2022/12/30 06:47:26;;;;;;;;;;;;;;;28.35;24.56;101620.53;5099022;28;1393;-17
2022/12/30 06:49:51;;;;;;;;;;;;;;;28.13;24.63;101618.50;5098967;28;1129;-17
2022/12/30 06:52:16;;;;;;;;;;;;;;;28.50;23.96;101619.00;5098473;28;2091;-17
2022/12/30 06:54:42;;;;;;;;;;;;;;;29.07;23.71;101625.31;5098348;28;1046;-17
2022/12/30 06:57:07;;;;;;;;;;;;;;;29.02;23.41;101615.00;5092812;28;1053;-17
2022/12/30 06:59:32;;;;;;;;;;;;;;;27.82;24.93;101620.84;5091289;28;1046;-17
2022/12/30 07:01:57;;;;;;;;;;;;;;;29.12;23.14;101624.78;5098507;28;1886;-17
2022/12/30 07:04:23;;;;;;;;;;;;;;;28.30;24.21;101620.16;5098546;28;1206;-17
2022/12/30 07:06:48;;;;;;;;;;;;;;;28.10;24.82;101631.34;5092814;28;1055;-17
2022/12/30 07:09:13;;;;;;;;;;;;;;;27.92;24.92;101623.38;5090990;28;1011;-17
2022/12/30 07:11:39;;;;;;;;;;;;;;;27.98;25.01;101628.13;5098126;28;1018;-17
2022/12/30 07:14:05;;;;;;;;;;;;;;;28.45;24.31;101633.91;5098527;28;1053;-17
2022/12/30 07:16:30;;;;;;;;;;;;;;;28.19;24.33;101632.19;5091745;28;1050;-17
2022/12/30 07:18:55;;;;;;;;;;;;;;;27.79;25.00;101629.28;5082208;28;1193;-17
2022/12/30 07:21:20;;;;;;;;;;;;;;;27.86;25.47;101634.88;5096721;28;1913;-17
2022/12/30 07:23:46;;;;;;;;;;;;;;;28.22;24.78;101637.25;5098584;28;1217;-17
2022/12/30 07:26:11;;;;;;;;;;;;;;;28.83;23.56;101629.75;5084595;28;1008;-17
2022/12/30 07:28:36;;;;;;;;;;;;;;;27.63;25.56;101636.31;5098093;28;1412;-17
2022/12/30 07:31:02;;;;;;;;;;;;;;;29.21;23.53;101637.28;5092073;28;1075;-17
2022/12/30 07:33:27;;;;;;;;;;;;;;;27.72;25.48;101634.50;5090374;28;971;-17
2022/12/30 07:35:52;;;;;;;;;;;;;;;28.11;24.78;101635.72;5097932;28;1162;-17
2022/12/30 07:38:18;;;;;;;;;;;;;;;28.40;24.65;101632.69;5098209;28;980;-17
2022/12/30 07:40:43;;;;;;;;;;;;;;;29.03;23.47;101632.13;5098080;28;1074;-17
2022/12/30 07:43:08;;;;;;;;;;;;;;;28.59;24.17;101640.47;5085829;28;1910;-17
2022/12/30 07:45:35;;;;;;;;;;;;;;;28.68;23.68;101638.59;5082986;28;1114;-17
2022/12/30 07:48:00;;;;;;;;;;;;;;;28.22;24.78;101636.41;5098098;28;999;-17
2022/12/30 07:50:25;;;;;;;;;;;;;;;28.25;24.67;101638.78;5097833;28;1034;-17
2022/12/30 07:52:50;;;;;;;;;;;;;;;27.98;24.76;101635.38;5097840;28;2191;-18
2022/12/30 07:55:16;;;;;;;;;;;;;;;27.89;25.09;101639.09;5091752;28;1186;-18
2022/12/30 07:57:41;;;;;;;;;;;;;;;28.31;24.70;101642.66;5090267;28;1115;-18
2022/12/30 08:00:09;;;;;;;;;;;;;;;27.59;25.88;101644.91;5096980;28;1133;-18
2022/12/30 08:02:34;;;;;;;;;;;;;;;29.48;23.31;101645.13;5097559;28;1972;-18
2022/12/30 08:05:00;;;;;;;;;;;;;;;29.75;22.73;101656.50;5097173;28;1004;-18
2022/12/30 08:07:25;;;;;;;;;;;;;;;27.68;25.45;101649.34;5097346;28;1102;-18
2022/12/30 08:09:50;;;;;;;;;;;;;;;28.81;24.08;101654.28;5097283;28;1128;-18
2022/12/30 08:12:16;;;;;;;;;;;;;;;26.66;22.96;101645.44;5097613;28;1245;-18
2022/12/30 08:14:41;;;;;;;;;;;;;;;26.88;24.15;101648.59;5096728;28;1107;-18
2022/12/30 08:17:06;;;;;;;;;;;;;;;27.22;24.02;101646.97;5097267;28;994;-18
2022/12/30 08:19:32;;;;;;;;;;;;;;;27.53;24.59;101649.09;5095734;28;1043;-18
2022/12/30 08:21:57;;;;;;;;;;;;;;;27.10;23.50;101647.25;5096617;28;2317;-18
2022/12/30 08:24:22;;;;;;;;;;;;;;;26.69;24.18;101641.59;5097099;28;1094;-18
2022/12/30 08:26:47;;;;;;;;;;;;;;;26.88;25.42;101648.59;5097032;28;1082;-18
2022/12/30 08:29:13;;;;;;;;;;;;;;;26.88;25.70;101652.16;5096694;28;1189;-18
2022/12/30 08:31:38;;;;;;;;;;;;;;;26.90;24.67;101649.31;5096612;28;1042;-18
2022/12/30 08:34:04;;;;;;;;;;;;;;;26.77;23.90;101647.91;5096644;28;1176;-18
2022/12/30 08:36:29;;;;;;;;;;;;;;;26.67;24.19;101648.97;5097066;28;1007;-18
2022/12/30 08:38:55;;;;;;;;;;;;;;;27.12;24.88;101649.78;5096830;28;1153;-18
2022/12/30 08:41:22;;;;;;;;;;;;;;;27.00;25.03;101644.66;5096737;28;1901;-18
2022/12/30 08:43:47;;;;;;;;;;;;;;;27.26;24.36;101649.19;5096210;28;1057;-18
2022/12/30 08:46:12;;;;;;;;;;;;;;;27.57;24.23;101646.94;5096040;28;1089;-18
2022/12/30 08:48:38;;;;;;;;;;;;;;;27.92;23.85;101647.72;5096065;28;1054;-18
2022/12/30 08:51:03;;;;;;;;;;;;;;;27.88;23.79;101649.03;5096386;28;1011;-18
2022/12/30 08:53:28;;;;;;;;;;;;;;;27.99;23.96;101654.13;5096281;28;2656;-17
2022/12/30 08:56:00;;;;;;;;;;;;;;;27.82;24.07;101652.44;5096111;28;1079;-17
2022/12/30 08:58:25;;;;;;;;;;;;;;;27.79;24.40;101641.94;5096221;28;1540;-17
2022/12/30 09:00:50;;;;;;;;;;;;;;;27.52;24.61;101644.72;5096584;28;1070;-17
2022/12/30 09:03:16;;;;;;;;;;;;;;;27.23;25.11;101640.53;5096505;28;1917;-17
2022/12/30 09:05:41;;;;;;;;;;;;;;;27.83;24.30;101636.03;5096411;28;1018;-17
2022/12/30 09:08:06;;;;;;;;;;;;;;;27.57;24.54;101631.56;5096254;28;1118;-17
2022/12/30 09:10:31;;;;;;;;;;;;;;;27.19;25.19;101620.28;5095957;28;1073;-17
2022/12/30 09:12:57;;;;;;;;;;;;;;;26.98;25.35;101619.66;5095974;28;988;-17
2022/12/30 09:15:22;;;;;;;;;;;;;;;27.22;25.20;101619.97;5096018;28;1161;-17
2022/12/30 09:17:47;;;;;;;;;;;;;;;27.04;25.50;101615.50;5097104;28;1099;-17
2022/12/30 09:20:13;;;;;;;;;;;;;;;27.27;25.05;101606.81;5085472;28;1081;-17
2022/12/30 09:22:38;;;;;;;;;;;;;;;27.38;25.23;101606.50;5092602;28;2407;-17
2022/12/30 09:25:04;;;;;;;;;;;;;;;28.27;23.74;101616.97;5096102;28;1011;-18
2022/12/30 09:27:29;;;;;;;;;;;;;;;27.24;25.38;101602.56;5096229;28;1076;-17
2022/12/30 09:29:54;;;;;;;;;;;;;;;27.85;24.65;101598.88;5096233;28;1118;-17
2022/12/30 09:32:20;;;;;;;;;;;;;;;28.70;23.42;101608.63;5095628;28;1089;-17
2022/12/30 09:34:45;;;;;;;;;;;;;;;28.01;24.41;101599.88;5095884;28;1017;-17
2022/12/30 09:37:10;;;;;;;;;;;;;;;27.95;24.46;101598.72;5095660;28;1049;-17
2022/12/30 09:39:36;;;;;;;;;;;;;;;27.43;24.96;101597.03;5095853;28;1062;-17
2022/12/30 09:44:48;;;;;;;;;;;;;;;27.30;25.47;101586.72;5095353;28;1074;-17
2022/12/30 09:47:16;;;;;;;;;;;;;;;27.43;25.52;101591.66;5095561;28;1090;-17
2022/12/30 09:49:43;;;;;;;;;;;;;;;27.59;24.96;101580.88;5096026;28;1010;-17
2022/12/30 09:52:13;;;;;;;;;;;;;;;27.21;25.47;101578.59;5094281;28;2373;-17
2022/12/30 09:54:39;;;;;;;;;;;;;;;27.66;25.16;101575.66;5094477;28;1042;-17
2022/12/30 09:59:50;;;;;;;;;;;;;;;27.60;25.01;101565.50;5097102;28;1126;-17
2022/12/30 10:02:15;;;;;;;;;;;;;;;27.47;25.19;101568.69;5098706;28;1975;-17
2022/12/30 10:04:41;;;;;;;;;;;;;;;28.19;24.30;101561.88;5099744;28;1134;-17
2022/12/30 10:07:11;;;;;;;;;;;;;;;27.59;24.83;101556.53;5090886;28;1042;-17
2022/12/30 10:09:43;;;;;;;;;;;;;;;27.19;25.47;101555.47;5094183;28;928;-17
2022/12/30 10:12:38;;;;;;;;;;;;;;;27.16;25.71;101551.22;5099790;28;987;-17
2022/12/30 10:15:15;;;;;;;;;;;;;;;27.47;25.42;101553.34;5077070;28;1523;-17
2022/12/30 10:17:40;;;;;;;;;;;;;;;27.12;25.61;101548.03;5099039;28;1010;-17
2022/12/30 10:20:15;;;;;;;;;;;;;;;27.20;25.88;101551.75;5099387;28;1094;-17
2022/12/30 10:22:46;;;;;;;;;;;;;;;27.50;24.91;101555.72;5098618;28;2344;-17
2022/12/30 10:25:34;;;;;;;;;;;;;;;27.08;25.89;101553.88;5099692;28;1070;-17
2022/12/30 10:27:59;;;;;;;;;;;;;;;27.59;25.42;101553.84;5082570;28;1299;-17
2022/12/30 10:30:38;;;;;;;;;;;;;;;27.18;25.39;101549.19;5099329;28;1151;-17
2022/12/30 10:33:07;;;;;;;;;;;;;;;27.14;26.23;101537.88;5089630;28;813;-17
2022/12/30 10:35:32;;;;;;;;;;;;;;;26.41;27.26;101540.03;5099199;28;1043;-18
2022/12/30 10:38:07;;;;;;;;;;;;;;;27.04;25.88;101544.44;5099272;28;1010;-17
2022/12/30 10:40:36;;;;;;;;;;;;;;;26.94;26.01;101539.13;5099086;28;1141;-17
2022/12/30 10:43:15;;;;;;;;;;;;;;;26.99;26.24;101532.22;5097521;28;1897;-17
2022/12/30 10:45:58;;;;;;;;;;;;;;;26.98;26.21;101530.53;5098553;28;1118;-17
2022/12/30 10:48:27;;;;;;;;;;;;;;;26.92;26.37;101524.94;5098874;28;1130;-17
2022/12/30 10:50:53;;;;;;;;;;;;;;;26.75;26.54;101523.03;5097501;28;995;-17
2022/12/30 10:53:22;;;;;;;;;;;;;;;26.91;26.23;101529.50;5097814;28;2608;-17
2022/12/30 10:55:49;;;;;;;;;;;;;;;26.85;26.27;101530.16;5098533;28;1057;-17
2022/12/30 10:58:22;;;;;;;;;;;;;;;27.03;25.08;101524.69;5097196;28;907;-17
2022/12/30 11:00:48;;;;;;;;;;;;;;;27.04;24.34;101517.44;5099261;28;994;-17
2022/12/30 11:03:15;;;;;;;;;;;;;;;26.73;23.33;101508.84;5098619;28;1953;-16
2022/12/30 11:05:40;;;;;;;;;;;;;;;26.18;25.56;101518.97;5097622;28;1019;-15
2022/12/30 11:08:16;;;;;;;;;;;;;;;26.05;25.80;101508.59;5098326;28;1200;-16
2022/12/30 11:10:41;;;;;;;;;;;;;;;26.17;25.87;101509.19;5096284;28;1031;-15
2022/12/30 11:15:59;;;;;;;;;;;;;;;26.57;24.69;101500.69;5098168;28;1097;-15
2022/12/30 11:18:26;;;;;;;;;;;;;;;26.88;23.74;101505.53;5098336;28;1030;-15
2022/12/30 11:20:51;;;;;;;;;;;;;;;27.02;23.46;101507.66;5096643;28;1175;-16
2022/12/30 11:23:43;;;;;;;;;;;;;;;26.89;23.61;101505.34;5089123;28;2564;-16
2022/12/30 11:26:17;;;;;;;;;;;;;;;27.39;24.56;101508.22;5096311;28;1107;-16
2022/12/30 11:29:02;;;;;;;;;;;;;;;27.22;24.77;101506.50;5097074;28;1055;-16
2022/12/30 11:31:41;;;;;;;;;;;;;;;27.23;23.90;101498.25;5086924;28;1404;-16
2022/12/30 11:34:06;;;;;;;;;;;;;;;27.30;24.48;101500.28;5096261;28;1083;-16
2022/12/30 11:36:32;;;;;;;;;;;;;;;27.16;24.30;101497.19;5097940;28;1192;-16
2022/12/30 11:39:04;;;;;;;;;;;;;;;27.12;24.20;101499.41;5096526;28;1030;-16
2022/12/30 11:41:29;;;;;;;;;;;;;;;27.29;23.83;101487.78;5097476;28;1924;-16
2022/12/30 11:44:01;;;;;;;;;;;;;;;27.41;23.65;101483.72;5097760;28;1142;-16
2022/12/30 11:46:26;;;;;;;;;;;;;;;27.41;23.86;101485.63;5097845;28;900;-16
2022/12/30 11:48:52;;;;;;;;;;;;;;;27.39;23.73;101472.28;5097709;28;1073;-16
2022/12/30 11:51:20;;;;;;;;;;;;;;;27.38;23.05;101473.28;5096274;28;1146;-16
2022/12/30 11:53:45;;;;;;;;;;;;;;;27.48;23.29;101478.50;5097259;28;2619;-16
2022/12/30 11:56:11;;;;;;;;;;;;;;;27.55;22.83;101470.56;5096759;28;1127;-16
2022/12/30 11:58:37;;;;;;;;;;;;;;;27.56;22.66;101475.81;5097563;28;1157;-16
2022/12/30 12:01:06;;;;;;;;;;;;;;;27.57;22.92;101473.97;5097902;28;1089;-17
2022/12/30 12:03:31;;;;;;;;;;;;;;;27.50;22.85;101469.25;5097329;28;1905;-16
2022/12/30 12:06:09;;;;;;;;;;;;;;;27.28;23.29;101467.19;5097703;28;1039;-15
2022/12/30 12:08:36;;;;;;;;;;;;;;;27.33;23.25;101471.06;5085179;28;1036;-16
2022/12/30 12:11:03;;;;;;;;;;;;;;;27.61;22.46;101478.03;5095680;28;1034;-16
2022/12/30 12:13:28;;;;;;;;;;;;;;;27.39;22.02;101470.41;5095892;28;1091;-16
2022/12/30 12:15:54;;;;;;;;;;;;;;;27.48;22.58;101471.25;5096956;28;1161;-16
2022/12/30 12:18:38;;;;;;;;;;;;;;;27.49;22.23;101472.13;5096145;28;1083;-17
2022/12/30 12:21:12;;;;;;;;;;;;;;;27.28;22.06;101453.69;5096336;28;1056;-17
2022/12/30 12:24:07;;;;;;;;;;;;;;;27.10;22.79;101460.91;5088056;28;2540;-17
2022/12/30 12:26:47;;;;;;;;;;;;;;;27.32;22.56;101464.00;5083699;28;1365;-16
2022/12/30 12:29:13;;;;;;;;;;;;;;;27.67;22.01;101462.97;5097019;28;1196;-16
2022/12/30 12:31:44;;;;;;;;;;;;;;;27.69;21.13;101455.59;5096085;28;1107;-16
2022/12/30 12:34:13;;;;;;;;;;;;;;;27.58;21.97;101459.44;5096413;28;986;-17
2022/12/30 12:36:41;;;;;;;;;;;;;;;27.78;21.97;101456.44;5097177;28;1130;-16
2022/12/30 12:39:08;;;;;;;;;;;;;;;27.86;21.39;101459.13;5096666;28;1042;-17
2022/12/30 12:41:44;;;;;;;;;;;;;;;27.67;21.64;101454.88;5095730;28;1894;-17
2022/12/30 12:44:12;;;;;;;;;;;;;;;27.80;21.52;101457.09;5095095;28;961;-16
2022/12/30 12:46:38;;;;;;;;;;;;;;;27.81;22.38;101453.38;5082724;28;859;-17
2022/12/30 12:49:07;;;;;;;;;;;;;;;28.02;22.37;101454.69;5096805;28;1014;-18
2022/12/30 12:51:39;;;;;;;;;;;;;;;27.74;22.69;101455.94;5095575;28;2334;-17
2022/12/30 12:54:11;;;;;;;;;;;;;;;27.39;23.29;101453.38;5096287;28;979;-17
2022/12/30 12:56:49;;;;;;;;;;;;;;;28.09;22.56;101453.81;5095446;28;1126;-17
2022/12/30 12:59:14;;;;;;;;;;;;;;;27.55;23.03;101452.50;5096223;28;880;-18
2022/12/30 13:01:52;;;;;;;;;;;;;;;27.61;23.42;101457.22;5096245;28;2087;-18
2022/12/30 13:04:24;;;;;;;;;;;;;;;27.78;22.99;101451.03;5095688;28;1018;-18
2022/12/30 13:06:52;;;;;;;;;;;;;;;27.31;24.13;101461.47;5082493;28;1050;-18
2022/12/30 13:09:36;;;;;;;;;;;;;;;27.65;23.89;101457.75;5095768;28;1171;-17
2022/12/30 13:12:04;;;;;;;;;;;;;;;27.50;23.63;101461.13;5096116;28;998;-18
2022/12/30 13:14:38;;;;;;;;;;;;;;;27.29;24.21;101449.97;5094856;28;1087;-17
2022/12/30 13:17:14;;;;;;;;;;;;;;;27.69;23.79;101456.44;5096400;28;1133;-18
2022/12/30 13:19:39;;;;;;;;;;;;;;;27.40;24.41;101460.44;5096031;28;1126;-17
2022/12/30 13:22:10;;;;;;;;;;;;;;;27.33;24.66;101464.81;5087603;28;2286;-17
2022/12/30 13:24:41;;;;;;;;;;;;;;;28.92;22.64;101468.09;5094131;28;1064;-18
2022/12/30 13:27:07;;;;;;;;;;;;;;;27.60;24.19;101468.22;5094799;28;1473;-18
2022/12/30 13:29:33;;;;;;;;;;;;;;;27.35;24.77;101471.75;5096168;28;1130;-17
2022/12/30 13:32:17;;;;;;;;;;;;;;;28.15;23.90;101473.94;5095155;28;1109;-18
2022/12/30 13:34:51;;;;;;;;;;;;;;;27.63;24.35;101470.56;5088177;28;897;-18
2022/12/30 13:37:39;;;;;;;;;;;;;;;27.46;24.67;101478.69;5095020;28;1558;-18
2022/12/30 13:40:05;;;;;;;;;;;;;;;28.23;23.90;101465.81;5095648;28;1093;-18
2022/12/30 13:42:49;;;;;;;;;;;;;;;27.96;24.02;101467.06;5095769;28;1897;-18
2022/12/30 13:45:18;;;;;;;;;;;;;;;26.43;26.08;101467.91;5095344;28;1011;-18
2022/12/30 13:47:43;;;;;;;;;;;;;;;27.80;24.23;101473.31;5094932;28;958;-17
2022/12/30 13:50:21;;;;;;;;;;;;;;;27.75;23.91;101469.28;5096362;28;1176;-18